HK-0002 weather

Heli-Tours Helipad
Hong Kong, Hong Kong

Public forecast

Using degrees Celsius for public forecast. Weather courtesy of forecast.io.

METAR (pilot weather report)

Closest report is Hong Kong International Airport, 13.4 nm (24.9 km) W. Retrieved 2019/05/24 18:30 UTC (15 minutes ago):

VHHH 241830Z 10010KT 9999 FEW012 SCT026 27/24 Q1009 NOSIG

TAF (pilot weather forecast)

Closest forecast is Hong Kong International Airport, 13.4 nm (24.9 km) W. Retrieved 2019/05/24 18:24 UTC (21 minutes ago):

TAF VHHH 241700Z 2418/2524 11010KT 7000 FEW012 SCT025 TX30/2506Z TN25/2422Z TN26/2522Z TEMPO 2421/2506 3000 SHRA FEW010CB SCT020 TEMPO 2514/2524 17010KT TEMPO 2518/2524 3000 SHRA FEW010CB SCT020